Time;durP1;ratioP1;P1;durP2;ratioP2;P2;SDS_P1;SDS_P2;PMS_P1;PMS_P2;Temp;Humidity;BMP_temperature;BMP_pressure;BME280_temperature;BME280_humidity;BME280_pressure;Samples;Min_cycle;Max_cycle;Signal;HPM_P1;HPM_P2
2022/05/20 00:01:47;;;;;;;17.63;10.20;;;;;;;;;;5070006;28;20043;-67
2022/05/20 00:04:12;;;;;;;14.75;10.30;;;;;;;;;;5090287;28;20430;-65
2022/05/20 00:06:38;;;;;;;15.13;10.55;;;;;;;;;;5078599;28;20157;-67
2022/05/20 00:09:03;;;;;;;14.32;10.25;;;;;;;;;;5079521;28;20458;-66
2022/05/20 00:11:28;;;;;;;15.82;10.52;;;;;;;;;;5065236;28;20360;-65
2022/05/20 00:13:53;;;;;;;13.25;10.20;;;;;;;;;;5082659;28;20024;-66
2022/05/20 00:16:19;;;;;;;15.48;10.13;;;;;;;;;;5100164;28;20046;-68
2022/05/20 00:18:47;;;;;;;14.82;9.65;;;;;;;;;;5100031;28;20214;-65
2022/05/20 00:21:13;;;;;;;12.88;9.95;;;;;;;;;;5099263;28;20059;-66
2022/05/20 00:23:38;;;;;;;14.43;9.98;;;;;;;;;;5100459;28;20035;-66
2022/05/20 00:26:04;;;;;;;16.13;10.20;;;;;;;;;;5103766;28;20031;-66
2022/05/20 00:28:29;;;;;;;12.57;10.30;;;;;;;;;;5102646;28;20032;-66
2022/05/20 00:30:57;;;;;;;14.38;11.52;;;;;;;;;;5103908;28;20020;-66
2022/05/20 00:33:22;;;;;;;14.57;10.20;;;;;;;;;;5101905;28;20038;-66
2022/05/20 00:35:48;;;;;;;14.48;10.10;;;;;;;;;;5097360;28;20668;-66
2022/05/20 00:38:14;;;;;;;14.93;9.65;;;;;;;;;;5098488;28;20336;-65
2022/05/20 00:40:40;;;;;;;12.85;9.00;;;;;;;;;;5085157;28;20052;-66
2022/05/20 00:43:11;;;;;;;14.52;9.18;;;;;;;;;;5104074;28;20090;-65
2022/05/20 00:45:37;;;;;;;11.20;8.85;;;;;;;;;;5101767;28;20018;-66
2022/05/20 00:48:02;;;;;;;11.68;8.77;;;;;;;;;;5105074;28;20012;-67
2022/05/20 00:50:28;;;;;;;10.45;8.18;;;;;;;;;;5104124;28;20466;-66
2022/05/20 00:52:53;;;;;;;11.65;8.63;;;;;;;;;;5072664;28;20028;-66
2022/05/20 00:55:21;;;;;;;11.32;8.82;;;;;;;;;;5088534;28;20089;-66
2022/05/20 00:57:52;;;;;;;10.98;9.07;;;;;;;;;;5084165;28;20060;-66
2022/05/20 01:00:19;;;;;;;12.63;9.70;;;;;;;;;;5085949;28;20462;-67
2022/05/20 01:02:46;;;;;;;10.75;8.95;;;;;;;;;;5086807;28;20069;-66
2022/05/20 01:05:17;;;;;;;11.32;9.18;;;;;;;;;;5086571;28;20024;-67
2022/05/20 01:07:43;;;;;;;13.60;9.82;;;;;;;;;;5078820;28;20050;-66
2022/05/20 01:10:08;;;;;;;12.70;10.18;;;;;;;;;;5086242;28;20478;-66
2022/05/20 01:12:34;;;;;;;11.88;9.40;;;;;;;;;;5086047;28;20541;-65
2022/05/20 01:14:59;;;;;;;12.50;10.48;;;;;;;;;;5087216;28;20035;-65
2022/05/20 01:17:24;;;;;;;13.93;10.85;;;;;;;;;;5085982;28;20111;-66
2022/05/20 01:19:54;;;;;;;14.85;10.50;;;;;;;;;;5086673;28;20468;-67
2022/05/20 01:22:30;;;;;;;19.45;11.73;;;;;;;;;;5079371;28;20024;-67
2022/05/20 01:24:56;;;;;;;14.00;11.23;;;;;;;;;;5090861;28;20517;-67
2022/05/20 01:27:21;;;;;;;16.17;11.00;;;;;;;;;;5107707;28;20035;-66
2022/05/20 01:29:46;;;;;;;16.20;11.77;;;;;;;;;;5106622;28;20016;-66
2022/05/20 01:32:11;;;;;;;15.70;11.63;;;;;;;;;;5104818;28;20039;-65
2022/05/20 01:34:36;;;;;;;14.88;12.02;;;;;;;;;;5106462;28;20032;-65
2022/05/20 01:37:02;;;;;;;16.27;12.55;;;;;;;;;;5097476;28;20051;-67
2022/05/20 01:39:27;;;;;;;14.25;11.43;;;;;;;;;;5106505;28;20035;-66
2022/05/20 01:42:04;;;;;;;13.88;11.88;;;;;;;;;;5104138;28;20300;-64
2022/05/20 01:44:36;;;;;;;19.13;12.57;;;;;;;;;;5105227;28;20059;-63
2022/05/20 01:47:01;;;;;;;15.53;11.70;;;;;;;;;;5087454;28;20022;-66
2022/05/20 01:49:52;;;;;;;17.73;12.97;;;;;;;;;;5107259;28;20015;-65
2022/05/20 01:52:20;;;;;;;14.85;13.30;;;;;;;;;;5084157;28;20256;-65
2022/05/20 01:54:49;;;;;;;18.67;14.52;;;;;;;;;;5086439;28;20028;-64
2022/05/20 01:57:33;;;;;;;18.33;15.40;;;;;;;;;;5106569;28;20087;-67
2022/05/20 02:00:04;;;;;;;21.90;17.55;;;;;;;;;;5106825;28;20026;-69
2022/05/20 02:02:37;;;;;;;21.23;16.42;;;;;;;;;;5106232;28;20023;-66
2022/05/20 02:05:02;;;;;;;;;;;;;;;;;;5088923;28;20016;-66
2022/05/20 02:07:29;;;;;;;17.55;15.27;;;;;;;;;;5080787;28;19915;-68
2022/05/20 02:10:01;;;;;;;17.58;15.68;;;;;;;;;;5084550;28;20149;-66
2022/05/20 02:12:28;;;;;;;18.08;15.77;;;;;;;;;;5085314;28;20035;-67
2022/05/20 02:15:00;;;;;;;17.90;15.95;;;;;;;;;;5086258;28;20822;-66
2022/05/20 02:17:33;;;;;;;19.23;16.30;;;;;;;;;;5084817;28;20032;-67
2022/05/20 02:20:06;;;;;;;20.70;16.42;;;;;;;;;;5065510;28;20028;-66
2022/05/20 02:22:31;;;;;;;;;;;;;;;;;;5078415;28;20512;-66
2022/05/20 02:24:58;;;;;;;21.30;18.58;;;;;;;;;;5084781;28;20331;-66
2022/05/20 02:27:25;;;;;;;25.83;19.42;;;;;;;;;;5082925;28;20385;-67
2022/05/20 02:29:55;;;;;;;22.10;19.33;;;;;;;;;;5082403;28;20112;-67
2022/05/20 02:32:29;;;;;;;21.73;18.17;;;;;;;;;;5084460;28;20478;-67
2022/05/20 02:34:55;;;;;;;21.67;18.83;;;;;;;;;;5083730;28;20028;-66
2022/05/20 02:37:27;;;;;;;25.38;19.27;;;;;;;;;;5078445;28;20016;-66
2022/05/20 02:39:53;;;;;;;23.75;18.90;;;;;;;;;;5103945;28;20538;-67
2022/05/20 02:42:19;;;;;;;23.65;19.40;;;;;;;;;;5087194;28;20069;-67
2022/05/20 02:44:44;;;;;;;20.05;18.02;;;;;;;;;;5105525;28;20024;-66
2022/05/20 02:47:10;;;;;;;23.02;18.60;;;;;;;;;;5103118;28;20023;-67
2022/05/20 02:49:36;;;;;;;24.23;20.63;;;;;;;;;;5107017;28;20077;-67
2022/05/20 02:52:02;;;;;;;24.60;22.00;;;;;;;;;;5076617;28;20140;-68
2022/05/20 02:54:27;;;;;;;28.55;22.15;;;;;;;;;;5096989;28;20036;-66
2022/05/20 02:56:52;;;;;;;25.08;21.92;;;;;;;;;;5083206;28;20028;-66
2022/05/20 03:04:45;;;;;;;29.25;25.38;;;;;;;;;;5084947;28;20019;-67
2022/05/20 03:07:10;;;;;;;31.50;25.48;;;;;;;;;;5078610;28;20028;-67
2022/05/20 03:09:35;;;;;;;29.23;25.42;;;;;;;;;;5085749;28;20046;-66
2022/05/20 03:12:00;;;;;;;29.75;25.98;;;;;;;;;;5078727;28;20399;-67
2022/05/20 03:14:26;;;;;;;28.73;25.67;;;;;;;;;;5084441;28;20344;-66
2022/05/20 03:16:51;;;;;;;29.38;26.25;;;;;;;;;;5081447;28;20031;-67
2022/05/20 03:19:17;;;;;;;32.78;28.65;;;;;;;;;;5085873;28;20020;-66
2022/05/20 03:21:43;;;;;;;33.78;28.73;;;;;;;;;;5077869;28;20371;-67
2022/05/20 03:24:09;;;;;;;33.70;29.75;;;;;;;;;;5065086;28;20020;-66
2022/05/20 03:26:35;;;;;;;30.17;26.98;;;;;;;;;;5084847;28;20058;-67
2022/05/20 03:29:02;;;;;;;32.70;28.70;;;;;;;;;;5081869;28;20019;-67
2022/05/20 03:31:28;;;;;;;31.35;28.00;;;;;;;;;;5065571;28;20047;-67
2022/05/20 03:33:53;;;;;;;37.25;30.42;;;;;;;;;;5089327;28;20066;-66
2022/05/20 03:36:18;;;;;;;36.60;30.17;;;;;;;;;;5090273;28;20212;-66
2022/05/20 03:38:47;;;;;;;33.28;27.92;;;;;;;;;;5101737;28;20028;-67
2022/05/20 03:41:13;;;;;;;36.33;31.42;;;;;;;;;;5104631;28;20274;-68
2022/05/20 03:43:39;;;;;;;33.25;28.88;;;;;;;;;;5089928;28;20020;-67
2022/05/20 03:46:04;;;;;;;38.38;31.65;;;;;;;;;;5083599;28;20506;-67
2022/05/20 03:48:30;;;;;;;30.70;26.58;;;;;;;;;;5083142;28;20028;-66
2022/05/20 03:51:05;;;;;;;31.00;27.63;;;;;;;;;;5078712;28;20379;-66
2022/05/20 03:53:31;;;;;;;35.45;30.50;;;;;;;;;;5083443;28;20091;-67
2022/05/20 03:55:56;;;;;;;39.03;32.42;;;;;;;;;;5083013;28;20148;-67
2022/05/20 03:58:21;;;;;;;41.08;33.40;;;;;;;;;;5066276;28;20092;-68
2022/05/20 04:03:30;;;;;;;40.25;33.85;;;;;;;;;;5085603;28;20429;-67
2022/05/20 04:05:57;;;;;;;48.13;35.92;;;;;;;;;;5077995;28;20019;-69
2022/05/20 04:08:22;;;;;;;40.95;32.83;;;;;;;;;;5080074;28;20066;-66
2022/05/20 04:10:48;;;;;;;49.42;37.33;;;;;;;;;;5082353;28;20044;-66
2022/05/20 04:13:13;;;;;;;47.28;36.83;;;;;;;;;;5083478;28;20027;-66
2022/05/20 04:15:39;;;;;;;44.97;35.78;;;;;;;;;;5083996;28;20034;-68
2022/05/20 04:18:04;;;;;;;44.47;35.53;;;;;;;;;;5079789;28;20506;-67
2022/05/20 04:20:29;;;;;;;44.78;36.05;;;;;;;;;;5084166;28;20028;-66
2022/05/20 04:22:55;;;;;;;47.42;36.30;;;;;;;;;;5081451;28;20024;-67
2022/05/20 04:25:20;;;;;;;40.08;35.10;;;;;;;;;;5102648;28;20128;-66
2022/05/20 04:27:46;;;;;;;44.20;35.45;;;;;;;;;;5102647;28;20024;-67
2022/05/20 04:30:12;;;;;;;46.28;35.58;;;;;;;;;;5085371;28;20038;-67
2022/05/20 04:32:37;;;;;;;44.90;35.55;;;;;;;;;;5102788;28;20474;-67
2022/05/20 04:35:03;;;;;;;48.35;37.63;;;;;;;;;;5100647;28;20084;-66
2022/05/20 04:37:28;;;;;;;39.05;32.40;;;;;;;;;;5098881;28;20035;-68
2022/05/20 04:39:54;;;;;;;39.08;32.53;;;;;;;;;;5100230;28;20024;-67
2022/05/20 04:47:48;;;;;;;41.75;32.85;;;;;;;;;;5102035;28;20026;-68
2022/05/20 04:50:13;;;;;;;45.00;36.83;;;;;;;;;;5099916;28;20457;-68
2022/05/20 04:52:38;;;;;;;42.25;34.50;;;;;;;;;;5099087;28;20031;-69
2022/05/20 04:55:04;;;;;;;44.70;35.88;;;;;;;;;;5099743;28;20024;-65
2022/05/20 04:57:31;;;;;;;43.28;35.58;;;;;;;;;;5102122;28;20023;-66
2022/05/20 05:00:01;;;;;;;44.53;35.50;;;;;;;;;;5089546;28;20024;-67
2022/05/20 05:02:27;;;;;;;48.08;36.85;;;;;;;;;;5082788;28;20024;-67
2022/05/20 05:04:53;;;;;;;49.10;38.72;;;;;;;;;;5081570;28;20012;-69
2022/05/20 05:07:19;;;;;;;43.88;35.97;;;;;;;;;;5074952;28;20021;-68
2022/05/20 05:09:45;;;;;;;47.25;38.47;;;;;;;;;;5081459;28;20055;-68
2022/05/20 05:12:11;;;;;;;51.78;40.35;;;;;;;;;;5080693;28;20036;-68
2022/05/20 05:14:37;;;;;;;45.33;36.50;;;;;;;;;;5083308;28;20020;-68
2022/05/20 05:17:07;;;;;;;47.97;36.78;;;;;;;;;;5079292;28;20026;-67
2022/05/20 05:19:33;;;;;;;54.22;41.33;;;;;;;;;;5086348;28;20016;-68
2022/05/20 05:21:59;;;;;;;50.95;40.13;;;;;;;;;;5074410;28;20082;-69
2022/05/20 05:24:24;;;;;;;53.78;42.63;;;;;;;;;;5084707;28;20089;-68
2022/05/20 05:26:55;;;;;;;56.88;45.00;;;;;;;;;;5084451;28;20020;-67
2022/05/20 05:29:20;;;;;;;63.50;46.63;;;;;;;;;;5086155;28;20028;-68
2022/05/20 05:31:45;;;;;;;57.47;44.42;;;;;;;;;;5081618;28;20024;-68
2022/05/20 05:34:10;;;;;;;61.65;45.50;;;;;;;;;;5083886;28;20498;-69
2022/05/20 05:36:36;;;;;;;55.88;44.50;;;;;;;;;;5081268;28;20386;-67
2022/05/20 05:39:01;;;;;;;57.13;45.22;;;;;;;;;;5085744;28;20036;-67
2022/05/20 05:41:27;;;;;;;66.13;49.78;;;;;;;;;;5085685;28;20016;-67
2022/05/20 05:43:54;;;;;;;57.92;46.33;;;;;;;;;;5085945;28;20463;-67
2022/05/20 05:46:19;;;;;;;57.53;46.92;;;;;;;;;;5085781;28;20024;-66
2022/05/20 05:48:47;;;;;;;54.40;45.40;;;;;;;;;;5085394;28;20497;-67
2022/05/20 05:51:13;;;;;;;57.45;47.10;;;;;;;;;;5080955;28;20307;-67
2022/05/20 05:53:38;;;;;;;61.53;48.08;;;;;;;;;;5082697;28;20114;-67
2022/05/20 05:56:05;;;;;;;57.00;45.80;;;;;;;;;;5085600;28;20260;-67
2022/05/20 05:58:31;;;;;;;57.75;45.63;;;;;;;;;;5086104;28;20019;-67
2022/05/20 06:00:57;;;;;;;49.97;42.42;;;;;;;;;;5092705;28;20020;-67
2022/05/20 06:03:23;;;;;;;50.67;41.15;;;;;;;;;;5107088;28;20052;-67
2022/05/20 06:05:48;;;;;;;53.63;44.55;;;;;;;;;;5105852;28;20144;-67
2022/05/20 06:08:14;;;;;;;53.95;44.28;;;;;;;;;;5100813;28;20191;-67
2022/05/20 06:10:40;;;;;;;53.58;43.72;;;;;;;;;;5106714;28;20134;-67
2022/05/20 06:13:06;;;;;;;55.15;44.05;;;;;;;;;;5104949;28;20481;-66
2022/05/20 06:15:31;;;;;;;45.10;39.63;;;;;;;;;;5098304;28;20052;-68
2022/05/20 06:17:59;;;;;;;48.33;40.13;;;;;;;;;;5086530;28;20506;-67
2022/05/20 06:20:26;;;;;;;47.50;38.70;;;;;;;;;;5086170;28;20470;-68
2022/05/20 06:22:51;;;;;;;40.85;36.45;;;;;;;;;;5082354;28;20028;-66
2022/05/20 06:25:17;;;;;;;43.78;37.55;;;;;;;;;;5084997;28;20024;-67
2022/05/20 06:27:42;;;;;;;40.78;35.28;;;;;;;;;;5086261;28;20016;-68
2022/05/20 06:30:09;;;;;;;38.88;32.53;;;;;;;;;;5083654;28;20077;-67
2022/05/20 06:32:34;;;;;;;37.70;33.65;;;;;;;;;;5084787;28;20547;-67
2022/05/20 06:40:34;;;;;;;35.28;28.00;;;;;;;;;;5084624;28;20038;-67
2022/05/20 06:42:59;;;;;;;31.92;27.27;;;;;;;;;;5083661;28;20028;-67
2022/05/20 06:45:25;;;;;;;34.00;27.75;;;;;;;;;;5066968;28;20372;-66
2022/05/20 06:47:50;;;;;;;31.08;26.23;;;;;;;;;;5082012;28;20020;-67
2022/05/20 06:50:15;;;;;;;35.92;28.98;;;;;;;;;;5082390;28;20036;-67
2022/05/20 06:52:41;;;;;;;30.15;26.40;;;;;;;;;;5081156;28;20115;-66
2022/05/20 06:55:07;;;;;;;34.35;25.50;;;;;;;;;;5098986;28;20059;-66
2022/05/20 06:57:36;;;;;;;33.20;26.35;;;;;;;;;;5083423;28;20016;-67
2022/05/20 07:00:01;;;;;;;32.38;27.00;;;;;;;;;;5084556;28;20104;-66
2022/05/20 07:02:26;;;;;;;33.53;27.42;;;;;;;;;;5064171;28;20028;-66
2022/05/20 07:04:53;;;;;;;33.58;27.05;;;;;;;;;;5084241;28;20016;-66
2022/05/20 07:07:18;;;;;;;32.15;25.98;;;;;;;;;;5059343;28;20422;-66
2022/05/20 07:09:43;;;;;;;30.80;26.13;;;;;;;;;;5085692;28;20506;-66
2022/05/20 07:12:09;;;;;;;30.80;25.30;;;;;;;;;;5079872;28;20477;-66
2022/05/20 07:14:35;;;;;;;29.70;23.55;;;;;;;;;;5085954;28;20032;-67
2022/05/20 07:17:02;;;;;;;27.70;22.92;;;;;;;;;;5101408;28;20372;-66
2022/05/20 07:19:27;;;;;;;26.92;21.92;;;;;;;;;;5086328;28;20051;-66
2022/05/20 07:21:52;;;;;;;27.77;21.80;;;;;;;;;;5079689;28;20070;-66
2022/05/20 07:24:17;;;;;;;23.83;19.95;;;;;;;;;;5104806;28;20375;-66
2022/05/20 07:26:42;;;;;;;21.23;17.73;;;;;;;;;;5086029;28;20025;-65
2022/05/20 07:29:11;;;;;;;28.63;19.75;;;;;;;;;;5082015;28;20024;-67
2022/05/20 07:31:36;;;;;;;24.45;21.15;;;;;;;;;;5081769;28;20116;-66
2022/05/20 07:34:02;;;;;;;24.55;20.92;;;;;;;;;;5084329;28;20107;-66
2022/05/20 07:36:28;;;;;;;25.17;21.13;;;;;;;;;;5077597;28;20044;-66
2022/05/20 07:38:53;;;;;;;22.00;18.83;;;;;;;;;;5083514;28;20396;-67
2022/05/20 07:41:19;;;;;;;23.02;18.23;;;;;;;;;;5082162;28;20542;-66
2022/05/20 07:43:44;;;;;;;19.83;17.65;;;;;;;;;;5085983;28;20020;-66
2022/05/20 07:46:10;;;;;;;18.35;16.52;;;;;;;;;;5083763;28;20035;-67
2022/05/20 07:48:35;;;;;;;21.67;17.27;;;;;;;;;;5095753;28;20110;-66
2022/05/20 07:51:02;;;;;;;24.45;20.50;;;;;;;;;;5099934;28;20024;-65
2022/05/20 07:53:35;;;;;;;22.60;18.67;;;;;;;;;;5085749;28;20023;-65
2022/05/20 07:56:11;;;;;;;22.75;19.08;;;;;;;;;;5102797;28;20044;-66
2022/05/20 07:58:50;;;;;;;20.77;18.08;;;;;;;;;;5104747;28;20393;-67
2022/05/20 08:01:17;;;;;;;21.77;18.80;;;;;;;;;;5101482;28;20024;-67
2022/05/20 08:06:31;;;;;;;17.25;15.45;;;;;;;;;;5097702;28;20030;-67
2022/05/20 08:08:56;;;;;;;18.05;14.32;;;;;;;;;;5100954;28;20024;-67
2022/05/20 08:11:22;;;;;;;17.33;14.63;;;;;;;;;;5102323;28;20055;-67
2022/05/20 08:13:50;;;;;;;22.50;16.20;;;;;;;;;;5103475;27;20024;-65
2022/05/20 08:16:16;;;;;;;17.98;15.35;;;;;;;;;;5101180;28;20153;-67
2022/05/20 08:18:41;;;;;;;16.27;13.70;;;;;;;;;;5103484;28;20106;-66
2022/05/20 08:21:07;;;;;;;15.05;13.02;;;;;;;;;;5096901;28;20019;-67
2022/05/20 08:23:32;;;;;;;12.45;11.18;;;;;;;;;;5067128;28;20248;-66
2022/05/20 08:25:57;;;;;;;12.60;11.20;;;;;;;;;;5095968;28;20499;-68
2022/05/20 08:28:23;;;;;;;55.72;14.45;;;;;;;;;;5091511;28;20023;-67
2022/05/20 08:30:48;;;;;;;13.65;10.85;;;;;;;;;;5083788;28;20546;-66
2022/05/20 08:33:13;;;;;;;12.98;10.88;;;;;;;;;;5079468;28;20020;-65
2022/05/20 08:35:39;;;;;;;12.32;9.65;;;;;;;;;;5100067;28;20032;-66
2022/05/20 08:38:04;;;;;;;10.13;9.07;;;;;;;;;;5099312;28;20433;-66
2022/05/20 08:40:34;;;;;;;11.90;9.77;;;;;;;;;;5101601;28;20032;-66
2022/05/20 08:43:01;;;;;;;12.82;10.90;;;;;;;;;;5085269;28;20027;-65
2022/05/20 08:45:27;;;;;;;11.80;10.68;;;;;;;;;;5079684;28;20510;-66
2022/05/20 08:47:53;;;;;;;14.60;10.52;;;;;;;;;;5064293;28;20068;-68
2022/05/20 08:50:28;;;;;;;14.77;10.38;;;;;;;;;;5080121;28;20518;-66
2022/05/20 08:52:54;;;;;;;13.80;11.30;;;;;;;;;;5079324;28;20016;-67
2022/05/20 08:55:20;;;;;;;11.63;10.43;;;;;;;;;;5102722;28;20019;-66
2022/05/20 08:57:50;;;;;;;12.52;10.35;;;;;;;;;;5102645;28;20034;-67
2022/05/20 09:00:16;;;;;;;12.35;11.05;;;;;;;;;;5102680;28;20197;-66
2022/05/20 09:02:41;;;;;;;14.73;12.90;;;;;;;;;;5100704;28;20134;-66
2022/05/20 09:05:16;;;;;;;14.98;13.40;;;;;;;;;;5099861;28;20023;-66
2022/05/20 09:08:00;;;;;;;14.35;12.85;;;;;;;;;;5098417;28;20024;-66
2022/05/20 09:10:46;;;;;;;18.67;13.13;;;;;;;;;;5103304;28;20219;-65
2022/05/20 09:15:43;;;;;;;16.85;13.48;;;;;;;;;;5105776;28;20050;-66
2022/05/20 09:16:11;;;;;;;13.77;12.05;;;;;;;;;;5084314;28;20244;-67
2022/05/20 09:18:39;;;;;;;15.85;13.60;;;;;;;;;;5083569;28;20023;-66
2022/05/20 09:21:05;;;;;;;14.40;12.93;;;;;;;;;;5081483;28;20269;-66
2022/05/20 09:23:30;;;;;;;14.27;12.82;;;;;;;;;;5081328;28;20522;-67
2022/05/20 09:25:59;;;;;;;14.70;13.15;;;;;;;;;;5084751;28;20028;-66
2022/05/20 09:28:30;;;;;;;16.27;12.70;;;;;;;;;;5083641;28;20026;-66
2022/05/20 09:31:02;;;;;;;15.05;13.35;;;;;;;;;;5084766;28;20111;-66
2022/05/20 09:33:29;;;;;;;14.50;12.57;;;;;;;;;;5082653;28;20032;-66
2022/05/20 09:36:01;;;;;;;13.52;11.85;;;;;;;;;;5082119;28;20048;-66
2022/05/20 09:38:35;;;;;;;12.53;11.33;;;;;;;;;;5064943;28;20023;-66
2022/05/20 09:41:12;;;;;;;13.30;11.88;;;;;;;;;;5084799;28;20596;-66
2022/05/20 09:43:40;;;;;;;13.07;11.55;;;;;;;;;;5081623;28;20026;-66
2022/05/20 09:46:06;;;;;;;13.30;10.35;;;;;;;;;;5084693;28;20047;-65
2022/05/20 09:48:43;;;;;;;12.45;10.30;;;;;;;;;;5081859;28;20047;-66
2022/05/20 09:51:19;;;;;;;11.13;10.05;;;;;;;;;;5080415;28;20020;-66
2022/05/20 09:54:04;;;;;;;11.50;10.27;;;;;;;;;;5083429;28;20099;-66
2022/05/20 09:56:31;;;;;;;11.57;10.32;;;;;;;;;;5081742;28;20016;-66
2022/05/20 09:59:15;;;;;;;11.23;9.70;;;;;;;;;;5086663;28;20379;-67
2022/05/20 10:01:48;;;;;;;12.32;9.50;;;;;;;;;;5087415;28;20015;-66
2022/05/20 10:04:18;;;;;;;12.45;8.77;;;;;;;;;;5107188;28;20027;-67
2022/05/20 10:06:48;;;;;;;10.73;9.10;;;;;;;;;;5093733;28;20024;-66
2022/05/20 10:09:25;;;;;;;10.90;9.63;;;;;;;;;;5096937;28;20044;-66
2022/05/20 10:11:54;;;;;;;16.48;11.18;;;;;;;;;;5104019;27;20028;-66
2022/05/20 10:14:24;;;;;;;11.20;9.57;;;;;;;;;;5105762;28;20032;-67
2022/05/20 10:16:57;;;;;;;13.68;10.38;;;;;;;;;;5104879;28;20417;-66
2022/05/20 10:19:29;;;;;;;12.27;9.70;;;;;;;;;;5105929;28;20106;-67
2022/05/20 10:21:55;;;;;;;;;;;;;;;;;;5096245;28;20019;-67
2022/05/20 10:24:41;;;;;;;11.53;8.33;;;;;;;;;;5107170;28;20357;-66
2022/05/20 10:27:27;;;;;;;10.25;9.25;;;;;;;;;;5106948;28;20260;-65
2022/05/20 10:32:41;;;;;;;9.93;7.95;;;;;;;;;;5104538;28;20260;-66
2022/05/20 10:35:08;;;;;;;11.10;9.90;;;;;;;;;;5096259;28;20366;-67
2022/05/20 10:37:33;;;;;;;13.43;9.77;;;;;;;;;;5079973;28;20012;-65
2022/05/20 10:40:18;;;;;;;10.27;8.30;;;;;;;;;;5088181;28;20020;-66
2022/05/20 10:42:49;;;;;;;9.27;7.95;;;;;;;;;;5086714;28;20261;-67
2022/05/20 10:51:07;;;;;;;13.35;9.95;;;;;;;;;;5102831;28;20092;-66
2022/05/20 10:53:55;;;;;;;12.98;10.25;;;;;;;;;;5103556;28;20027;-66
2022/05/20 10:56:42;;;;;;;9.57;8.55;;;;;;;;;;5104681;28;20034;-66
2022/05/20 10:59:25;;;;;;;10.10;9.10;;;;;;;;;;5106117;28;20016;-67
2022/05/20 11:02:16;;;;;;;10.55;9.35;;;;;;;;;;5104135;28;20098;-67
2022/05/20 11:05:00;;;;;;;11.55;8.98;;;;;;;;;;5073143;28;20328;-66
2022/05/20 11:07:35;;;;;;;12.07;9.40;;;;;;;;;;5090869;28;20450;-67
2022/05/20 11:10:08;;;;;;;9.95;8.65;;;;;;;;;;5084575;28;20135;-67
2022/05/20 11:12:34;;;;;;;10.38;9.30;;;;;;;;;;5082043;28;20062;-67
2022/05/20 11:15:15;;;;;;;12.05;9.48;;;;;;;;;;5085766;28;20043;-66
2022/05/20 11:17:43;;;;;;;9.30;8.27;;;;;;;;;;5081501;28;20524;-67
2022/05/20 11:20:08;;;;;;;10.48;8.82;;;;;;;;;;5082854;28;20031;-67
2022/05/20 11:22:44;;;;;;;19.00;10.23;;;;;;;;;;5075934;28;20279;-67
2022/05/20 11:25:19;;;;;;;13.45;10.65;;;;;;;;;;5085324;28;20020;-67
2022/05/20 11:27:53;;;;;;;13.13;11.80;;;;;;;;;;5082167;28;20503;-67
2022/05/20 11:30:23;;;;;;;15.25;12.13;;;;;;;;;;5084708;28;20069;-69
2022/05/20 11:32:52;;;;;;;14.05;11.75;;;;;;;;;;5062996;28;20112;-67
2022/05/20 11:35:24;;;;;;;13.93;11.63;;;;;;;;;;5094371;28;20028;-67
2022/05/20 11:37:56;;;;;;;14.85;12.90;;;;;;;;;;5080846;28;20027;-67
2022/05/20 11:40:39;;;;;;;15.05;13.38;;;;;;;;;;5105019;28;20517;-67
2022/05/20 11:43:05;;;;;;;17.67;13.77;;;;;;;;;;5101969;28;20026;-67
2022/05/20 11:45:30;;;;;;;16.70;13.75;;;;;;;;;;5102158;28;20015;-68
2022/05/20 11:48:11;;;;;;;16.02;13.90;;;;;;;;;;5102497;28;20027;-69
2022/05/20 11:50:39;;;;;;;16.17;14.45;;;;;;;;;;5098394;28;20026;-67
2022/05/20 11:53:15;;;;;;;19.15;15.52;;;;;;;;;;5081298;28;20156;-67
2022/05/20 11:55:56;;;;;;;17.55;15.73;;;;;;;;;;5080468;28;21384;-67
2022/05/20 11:58:24;;;;;;;15.90;14.40;;;;;;;;;;5084008;28;20019;-69
2022/05/20 12:00:50;;;;;;;16.92;15.15;;;;;;;;;;5079384;28;20030;-67
2022/05/20 12:03:17;;;;;;;17.63;15.77;;;;;;;;;;5081552;28;20020;-68
2022/05/20 12:05:44;;;;;;;18.83;15.82;;;;;;;;;;5078140;28;20578;-68
2022/05/20 12:08:28;;;;;;;16.90;15.07;;;;;;;;;;5077845;28;20020;-69
2022/05/20 12:10:55;;;;;;;17.70;15.63;;;;;;;;;;5079156;28;20139;-68
2022/05/20 12:13:29;;;;;;;19.80;17.35;;;;;;;;;;5083580;28;20119;-68
2022/05/20 12:16:14;;;;;;;22.73;16.77;;;;;;;;;;5082370;28;20107;-67
2022/05/20 12:24:28;;;;;;;23.23;19.45;;;;;;;;;;5083650;28;20108;-67
2022/05/20 12:26:54;;;;;;;34.05;22.10;;;;;;;;;;5077996;28;20016;-68
2022/05/20 12:29:35;;;;;;;29.20;21.95;;;;;;;;;;5065488;28;20032;-68
2022/05/20 12:32:20;;;;;;;29.00;20.50;;;;;;;;;;5080232;28;20500;-68
2022/05/20 12:34:54;;;;;;;29.15;22.38;;;;;;;;;;5080779;28;20116;-68
2022/05/20 12:37:38;;;;;;;29.45;23.65;;;;;;;;;;5073744;28;20127;-67
2022/05/20 12:40:03;;;;;;;27.73;21.40;;;;;;;;;;5083531;28;20028;-67
2022/05/20 12:42:39;;;;;;;26.02;21.73;;;;;;;;;;5081440;28;20023;-69
2022/05/20 12:45:05;;;;;;;24.67;20.70;;;;;;;;;;5084524;28;20035;-69
2022/05/20 12:47:34;;;;;;;29.95;22.08;;;;;;;;;;5078367;28;20020;-68
2022/05/20 12:50:02;;;;;;;26.92;21.38;;;;;;;;;;5082245;28;20124;-68
2022/05/20 12:52:35;;;;;;;33.13;22.25;;;;;;;;;;5074981;28;20024;-66
2022/05/20 12:55:12;;;;;;;27.88;22.45;;;;;;;;;;5083698;28;20084;-68
2022/05/20 12:57:46;;;;;;;34.33;25.38;;;;;;;;;;5081928;28;20034;-68
2022/05/20 13:00:12;;;;;;;38.58;23.60;;;;;;;;;;5099533;28;20032;-67
2022/05/20 13:02:43;;;;;;;34.33;24.83;;;;;;;;;;5100528;28;20440;-68
2022/05/20 13:05:23;;;;;;;43.60;26.58;;;;;;;;;;5100518;28;20439;-68
2022/05/20 13:07:50;;;;;;;37.28;24.70;;;;;;;;;;5075326;28;20069;-68
2022/05/20 13:10:24;;;;;;;40.88;22.63;;;;;;;;;;5085468;28;20056;-67
2022/05/20 13:12:50;;;;;;;44.28;22.08;;;;;;;;;;5101221;28;20445;-68
2022/05/20 13:15:19;;;;;;;48.25;19.65;;;;;;;;;;5081468;28;20106;-68
2022/05/20 13:17:49;;;;;;;32.20;12.60;;;;;;;;;;5082161;28;20016;-69
2022/05/20 13:20:15;;;;;;;21.02;10.90;;;;;;;;;;5079631;28;20036;-67
2022/05/20 13:22:47;;;;;;;22.23;12.45;;;;;;;;;;5086619;28;20072;-67
2022/05/20 13:25:12;;;;;;;20.45;11.48;;;;;;;;;;5105900;28;20046;-69
2022/05/20 13:27:43;;;;;;;23.35;12.18;;;;;;;;;;5101949;28;20475;-67
2022/05/20 13:30:14;;;;;;;21.00;11.50;;;;;;;;;;5101173;28;20104;-68
2022/05/20 13:32:39;;;;;;;23.40;11.32;;;;;;;;;;5084265;28;20324;-67
2022/05/20 13:35:05;;;;;;;18.63;10.55;;;;;;;;;;5101378;28;20027;-66
2022/05/20 13:37:43;;;;;;;22.58;10.68;;;;;;;;;;5096784;28;20023;-66
2022/05/20 13:40:11;;;;;;;20.92;9.75;;;;;;;;;;5104001;28;20016;-66
2022/05/20 13:42:36;;;;;;;16.42;7.88;;;;;;;;;;5102817;28;20157;-67
2022/05/20 13:45:06;;;;;;;15.48;7.70;;;;;;;;;;5104254;28;20441;-68
2022/05/20 13:50:16;;;;;;;17.38;8.45;;;;;;;;;;5100817;28;20095;-67
2022/05/20 13:52:43;;;;;;;28.67;10.70;;;;;;;;;;5095548;28;20032;-67
2022/05/20 13:55:09;;;;;;;17.48;8.73;;;;;;;;;;5102474;28;20327;-67
2022/05/20 13:57:37;;;;;;;17.88;7.50;;;;;;;;;;5106007;28;20591;-68
2022/05/20 14:00:24;;;;;;;15.60;6.63;;;;;;;;;;5107519;28;20080;-67
2022/05/20 14:02:55;;;;;;;17.35;4.97;;;;;;;;;;5082070;28;20012;-66
2022/05/20 14:05:22;;;;;;;10.82;3.63;;;;;;;;;;5068025;28;20685;-67
2022/05/20 14:07:52;;;;;;;12.23;3.80;;;;;;;;;;5081887;28;20031;-68
2022/05/20 14:10:26;;;;;;;19.17;3.90;;;;;;;;;;5086662;28;20100;-67
2022/05/20 14:13:05;;;;;;;11.07;4.78;;;;;;;;;;5084070;28;20052;-68
2022/05/20 14:15:40;;;;;;;20.40;8.07;;;;;;;;;;5087448;28;20043;-67
2022/05/20 14:18:09;;;;;;;18.52;9.43;;;;;;;;;;5086319;28;20031;-68
2022/05/20 14:20:39;;;;;;;24.02;10.07;;;;;;;;;;5082462;28;20424;-68
2022/05/20 14:23:06;;;;;;;27.48;11.57;;;;;;;;;;5079708;28;20482;-67
2022/05/20 14:25:33;;;;;;;34.10;15.77;;;;;;;;;;5087249;28;20020;-67
2022/05/20 14:28:16;;;;;;;34.95;17.35;;;;;;;;;;5082747;28;20548;-67
2022/05/20 14:30:50;;;;;;;37.45;19.25;;;;;;;;;;5084590;28;20020;-66
2022/05/20 14:33:19;;;;;;;44.28;20.27;;;;;;;;;;5085230;28;20431;-69
2022/05/20 14:35:46;;;;;;;32.03;18.40;;;;;;;;;;5100565;28;20019;-67
2022/05/20 14:38:14;;;;;;;35.45;20.90;;;;;;;;;;5102510;28;20020;-67
2022/05/20 14:40:40;;;;;;;41.47;23.38;;;;;;;;;;5103721;28;20015;-68
2022/05/20 14:43:06;;;;;;;42.30;20.40;;;;;;;;;;5085335;28;20078;-67
2022/05/20 14:45:37;;;;;;;27.92;14.38;;;;;;;;;;5084704;28;20012;-67
2022/05/20 14:48:10;;;;;;;37.50;15.18;;;;;;;;;;5084136;28;20018;-68
2022/05/20 14:50:36;;;;;;;37.20;15.13;;;;;;;;;;5084210;28;20481;-67
2022/05/20 14:53:06;;;;;;;33.38;15.60;;;;;;;;;;5093486;28;20038;-67
2022/05/20 14:55:39;;;;;;;35.85;15.50;;;;;;;;;;5105145;28;20023;-67
2022/05/20 14:58:09;;;;;;;33.25;14.85;;;;;;;;;;5103259;28;20103;-68
2022/05/20 15:00:35;;;;;;;35.10;14.90;;;;;;;;;;5105423;27;20466;-67
2022/05/20 15:03:00;;;;;;;38.17;12.07;;;;;;;;;;5102717;28;20450;-67
2022/05/20 15:05:28;;;;;;;42.38;10.20;;;;;;;;;;5102931;27;20022;-68
2022/05/20 15:08:01;;;;;;;34.63;9.73;;;;;;;;;;5097541;28;20016;-66
2022/05/20 15:10:26;;;;;;;;;;;;;;;;;;5105129;28;20128;-68